createdAt,value
2019-01-11T00:00:31.038Z,2.01
2019-01-11T00:02:57.024Z,1.97
2019-01-11T00:05:22.966Z,1.95
2019-01-11T00:07:48.957Z,1.97
2019-01-11T00:10:14.926Z,1.93
2019-01-11T00:12:41.177Z,1.93
2019-01-11T00:15:07.367Z,1.91
2019-01-11T00:17:33.322Z,1.88
2019-01-11T00:20:03.634Z,1.84
2019-01-11T00:22:29.603Z,1.81
2019-01-11T00:24:57.470Z,1.78
2019-01-11T00:27:23.626Z,1.77
2019-01-11T00:29:49.820Z,1.75
2019-01-11T00:32:15.774Z,1.73
2019-01-11T00:34:41.721Z,1.71
2019-01-11T00:37:07.700Z,1.70
2019-01-11T00:39:33.658Z,1.68
2019-01-11T00:41:59.622Z,1.68
2019-01-11T00:44:26.296Z,1.68
2019-01-11T00:46:52.287Z,1.70
2019-01-11T00:49:19.431Z,1.73
2019-01-11T00:51:45.426Z,1.76
2019-01-11T00:54:11.458Z,1.80
2019-01-11T00:56:38.586Z,1.76
2019-01-11T00:59:05.105Z,1.66
2019-01-11T01:01:31.048Z,1.59
2019-01-11T01:03:56.997Z,1.58
2019-01-11T01:06:23.519Z,1.54
2019-01-11T01:08:49.476Z,1.53
2019-01-11T01:11:15.421Z,1.49
2019-01-11T01:13:41.407Z,1.48
2019-01-11T01:16:07.356Z,1.44
2019-01-11T01:18:33.304Z,1.44
2019-01-11T01:20:59.494Z,1.41
2019-01-11T01:23:25.750Z,1.39
2019-01-11T01:25:52.215Z,1.34
2019-01-11T01:28:20.143Z,1.33
2019-01-11T01:30:46.098Z,1.30
2019-01-11T01:33:14.367Z,1.29
2019-01-11T01:35:40.358Z,1.26
2019-01-11T01:38:06.314Z,1.21
2019-01-11T01:40:32.342Z,1.18
2019-01-11T01:43:00.934Z,1.11
2019-01-11T01:45:26.969Z,1.03
2019-01-11T01:47:54.723Z,0.94
2019-01-11T01:50:20.758Z,0.89
2019-01-11T01:52:46.713Z,0.85
2019-01-11T01:55:14.183Z,0.84
2019-01-11T01:57:40.171Z,0.84
2019-01-11T02:00:09.823Z,0.85
2019-01-11T02:02:35.781Z,0.86
2019-01-11T02:05:02.684Z,0.87
2019-01-11T02:07:28.635Z,0.88
2019-01-11T02:09:54.595Z,0.87
2019-01-11T02:12:20.613Z,0.86
2019-01-11T02:14:46.556Z,0.86
2019-01-11T02:17:13.920Z,0.84
2019-01-11T02:19:39.926Z,0.84
2019-01-11T02:22:06.088Z,0.84
2019-01-11T02:24:32.246Z,0.84
2019-01-11T02:26:58.528Z,0.85
2019-01-11T02:29:24.888Z,0.87
2019-01-11T02:31:51.137Z,0.87
2019-01-11T02:34:17.151Z,0.87
2019-01-11T02:36:45.027Z,0.88
2019-01-11T02:39:10.964Z,0.91
2019-01-11T02:41:36.939Z,0.93
2019-01-11T02:44:03.936Z,0.95
2019-01-11T02:46:29.874Z,0.94
2019-01-11T02:48:55.874Z,0.94
2019-01-11T02:51:21.828Z,0.95
2019-01-11T02:53:47.784Z,0.96
2019-01-11T02:56:15.388Z,0.96
2019-01-11T02:58:41.357Z,0.96
2019-01-11T03:01:07.301Z,0.97
2019-01-11T03:03:34.783Z,0.95
2019-01-11T03:06:00.748Z,0.95
2019-01-11T03:08:27.520Z,0.96
2019-01-11T03:10:53.514Z,0.96
2019-01-11T03:13:21.366Z,0.93
2019-01-11T03:15:47.328Z,0.90
2019-01-11T03:18:13.338Z,0.88
2019-01-11T03:20:39.291Z,0.88
2019-01-11T03:23:05.252Z,0.87
2019-01-11T03:25:31.226Z,0.86
2019-01-11T03:27:57.211Z,0.82
2019-01-11T03:30:23.958Z,0.80
2019-01-11T03:32:51.850Z,0.76
2019-01-11T03:35:18.609Z,0.75
2019-01-11T03:37:46.280Z,0.71
2019-01-11T03:40:14.594Z,0.70
2019-01-11T03:42:40.543Z,0.68
2019-01-11T03:45:10.223Z,0.66
2019-01-11T03:47:36.303Z,0.64
2019-01-11T03:50:05.552Z,0.61
2019-01-11T03:52:31.498Z,0.60
2019-01-11T03:54:57.493Z,0.60
2019-01-11T03:57:25.258Z,0.61
2019-01-11T03:59:51.215Z,0.59
2019-01-11T04:02:17.237Z,0.61
2019-01-11T04:04:43.179Z,0.60
2019-01-11T04:07:09.135Z,0.60
2019-01-11T04:09:35.111Z,0.60
2019-01-11T04:12:01.076Z,0.60
2019-01-11T04:14:27.021Z,0.59
2019-01-11T04:16:53.012Z,0.57
2019-01-11T04:19:18.981Z,0.55
2019-01-11T04:21:46.832Z,0.54
2019-01-11T04:24:14.769Z,0.52
2019-01-11T04:26:40.732Z,0.52
2019-01-11T04:29:06.983Z,0.50
2019-01-11T04:31:32.980Z,0.49
2019-01-11T04:33:58.951Z,0.48
2019-01-11T04:36:24.918Z,0.47
2019-01-11T04:38:51.099Z,0.44
2019-01-11T04:41:17.051Z,0.41
2019-01-11T04:43:43.006Z,0.39
2019-01-11T04:46:09.669Z,0.37
2019-01-11T04:48:35.614Z,0.35
2019-01-11T04:51:03.574Z,0.35
2019-01-11T04:53:29.563Z,0.32
2019-01-11T04:55:55.544Z,0.30
2019-01-11T04:58:21.516Z,0.28
2019-01-11T05:00:47.743Z,0.27
2019-01-11T05:03:13.695Z,0.25
2019-01-11T05:05:39.646Z,0.25
2019-01-11T05:08:06.725Z,0.24
2019-01-11T05:10:32.672Z,0.25
2019-01-11T05:13:00.550Z,0.24
2019-01-11T05:15:28.331Z,0.24
2019-01-11T05:17:55.490Z,0.22
2019-01-11T05:20:21.432Z,0.21
2019-01-11T05:22:49.339Z,0.22
2019-01-11T05:25:17.286Z,0.24
2019-01-11T05:27:43.246Z,0.21
2019-01-11T05:30:14.779Z,0.21
2019-01-11T05:32:40.843Z,0.23
2019-01-11T05:35:08.091Z,0.24
2019-01-11T05:37:34.078Z,0.22
2019-01-11T05:40:01.529Z,0.22
2019-01-11T05:42:27.586Z,0.21
2019-01-11T05:44:54.679Z,0.22
2019-01-11T05:47:20.951Z,0.24
2019-01-11T05:49:46.892Z,0.22
2019-01-11T05:52:12.924Z,0.24
2019-01-11T05:54:38.876Z,0.28
2019-01-11T05:57:05.227Z,0.29
2019-01-11T05:59:31.239Z,0.29
2019-01-11T06:01:57.375Z,0.31
2019-01-11T06:04:30.823Z,0.33
2019-01-11T06:07:04.610Z,0.36
2019-01-11T06:09:30.564Z,0.38
2019-01-11T06:11:56.526Z,0.38
2019-01-11T06:14:22.548Z,0.40
2019-01-11T06:16:48.500Z,0.41
2019-01-11T06:19:14.455Z,0.42
2019-01-11T06:21:40.458Z,0.38
2019-01-11T06:24:07.413Z,0.38
2019-01-11T06:26:33.367Z,0.37
2019-01-11T06:28:59.365Z,0.35
2019-01-11T06:31:25.334Z,0.36
2019-01-11T06:33:51.306Z,0.36
2019-01-11T06:36:17.829Z,0.34
2019-01-11T06:38:43.779Z,0.33
2019-01-11T06:41:09.833Z,0.32
2019-01-11T06:43:35.838Z,0.31
2019-01-11T06:46:01.789Z,0.28
2019-01-11T06:48:31.055Z,0.26
2019-01-11T06:50:57.145Z,0.23
2019-01-11T06:53:23.257Z,0.19
2019-01-11T06:55:49.320Z,0.17
2019-01-11T06:58:15.335Z,0.15
2019-01-11T07:00:41.706Z,0.13
2019-01-11T07:03:07.655Z,0.10
2019-01-11T07:05:35.253Z,0.08
2019-01-11T07:08:01.201Z,0.11
2019-01-11T07:10:27.160Z,0.19
2019-01-11T07:12:53.217Z,0.29
2019-01-11T07:15:19.166Z,0.29
2019-01-11T07:17:45.447Z,0.30
2019-01-11T07:20:13.470Z,0.30
2019-01-11T07:22:39.761Z,0.33
2019-01-11T07:25:08.509Z,0.36
2019-01-11T07:27:36.419Z,0.38
2019-01-11T07:30:06.204Z,0.44
2019-01-11T07:32:32.661Z,0.50
2019-01-11T07:34:58.659Z,0.56
2019-01-11T07:37:24.611Z,0.61
2019-01-11T07:39:51.329Z,0.64
2019-01-11T07:42:17.345Z,0.69
2019-01-11T07:44:43.294Z,0.74
2019-01-11T07:47:09.256Z,0.81
2019-01-11T07:49:35.704Z,0.87
2019-01-11T07:52:05.252Z,0.95
2019-01-11T07:54:31.219Z,1.03
2019-01-11T07:56:57.660Z,1.12
2019-01-11T07:59:23.616Z,1.19
2019-01-11T08:01:49.766Z,1.24
2019-01-11T08:04:15.805Z,1.33
2019-01-11T08:06:41.760Z,1.37
2019-01-11T08:09:07.920Z,1.37
2019-01-11T08:11:33.911Z,1.40
2019-01-11T08:13:59.880Z,1.45
2019-01-11T08:16:25.822Z,1.47
2019-01-11T08:18:52.108Z,1.53
2019-01-11T08:21:18.056Z,1.55
2019-01-11T08:23:44.004Z,1.55
2019-01-11T08:26:10.041Z,1.58
2019-01-11T08:28:36.045Z,1.64
2019-01-11T08:31:02.211Z,1.71
2019-01-11T08:33:30.138Z,1.72
2019-01-11T08:35:56.171Z,1.76
2019-01-11T08:38:22.830Z,1.76
2019-01-11T08:40:49.190Z,1.74
2019-01-11T08:43:15.143Z,1.76
2019-01-11T08:45:41.509Z,1.78
2019-01-11T08:48:07.628Z,1.74
2019-01-11T08:50:33.669Z,1.76
2019-01-11T08:53:00.417Z,1.80
2019-01-11T08:55:28.327Z,1.92
2019-01-11T08:57:54.393Z,1.99
2019-01-11T09:00:20.365Z,2.01
2019-01-11T09:02:46.503Z,1.99
2019-01-11T09:05:12.852Z,2.01
2019-01-11T09:07:39.199Z,2.02
2019-01-11T09:10:09.036Z,2.06
2019-01-11T09:12:35.203Z,2.07
2019-01-11T09:15:02.268Z,2.08
2019-01-11T09:17:28.303Z,2.12
2019-01-11T09:19:54.253Z,2.17
2019-01-11T09:22:20.514Z,2.15
2019-01-11T09:24:48.410Z,2.19
2019-01-11T09:27:14.481Z,2.20
2019-01-11T09:29:40.468Z,2.27
2019-01-11T09:32:06.888Z,2.33
2019-01-11T09:34:33.144Z,2.30
2019-01-11T09:36:59.270Z,2.34
2019-01-11T09:39:25.269Z,2.35
2019-01-11T09:41:51.230Z,2.41
2019-01-11T09:44:19.181Z,2.43
2019-01-11T09:46:45.187Z,2.41
2019-01-11T09:49:11.138Z,2.40
2019-01-11T09:51:38.409Z,2.38
2019-01-11T09:54:05.227Z,2.40
2019-01-11T09:56:31.195Z,2.37
2019-01-11T09:58:57.158Z,2.35
2019-01-11T10:01:23.262Z,2.33
2019-01-11T10:03:49.222Z,2.36
2019-01-11T10:06:15.288Z,2.34
2019-01-11T10:08:41.284Z,2.35
2019-01-11T10:11:07.354Z,2.33
2019-01-11T10:13:33.563Z,2.31
2019-01-11T10:15:59.663Z,2.29
2019-01-11T10:18:26.015Z,2.27
2019-01-11T10:20:51.961Z,2.32
2019-01-11T10:23:18.389Z,2.35
2019-01-11T10:25:44.298Z,2.40
2019-01-11T10:28:10.274Z,2.42
2019-01-11T10:30:36.277Z,2.44
2019-01-11T10:33:02.432Z,2.47
2019-01-11T10:35:28.387Z,2.48
2019-01-11T10:37:54.434Z,2.45
2019-01-11T10:40:20.384Z,2.42
2019-01-11T10:42:46.420Z,2.40
2019-01-11T10:45:17.984Z,2.40
2019-01-11T10:47:43.938Z,2.37
2019-01-11T10:50:13.620Z,2.42
2019-01-11T10:52:40.780Z,2.50
2019-01-11T10:55:09.960Z,2.55
2019-01-11T10:57:35.919Z,2.62
2019-01-11T11:00:06.880Z,2.62
2019-01-11T11:02:32.850Z,2.67
2019-01-11T11:04:58.804Z,2.63
2019-01-11T11:07:24.956Z,2.64
2019-01-11T11:09:51.907Z,2.69
2019-01-11T11:12:17.887Z,2.73
2019-01-11T11:14:43.860Z,2.69
2019-01-11T11:17:09.833Z,2.66
2019-01-11T11:19:35.818Z,2.63
2019-01-11T11:22:02.739Z,2.62
2019-01-11T11:24:28.828Z,2.63
2019-01-11T11:26:54.765Z,2.66
2019-01-11T11:29:20.759Z,2.69
2019-01-11T11:31:46.719Z,2.77
2019-01-11T11:34:12.674Z,2.82
2019-01-11T11:36:38.672Z,2.83
2019-01-11T11:39:08.232Z,2.86
2019-01-11T11:41:34.191Z,2.88
2019-01-11T11:44:00.226Z,2.94
2019-01-11T11:46:26.183Z,3.02
2019-01-11T11:48:52.152Z,3.08
2019-01-11T11:51:18.136Z,3.12
2019-01-11T11:53:45.008Z,3.14
2019-01-11T11:56:10.961Z,3.21
2019-01-11T11:58:37.302Z,3.32
2019-01-11T12:01:05.373Z,3.47
2019-01-11T12:03:31.337Z,3.67
2019-01-11T12:05:59.272Z,3.71
2019-01-11T12:08:25.228Z,3.58
2019-01-11T12:10:51.471Z,3.45
2019-01-11T12:13:17.461Z,3.41
2019-01-11T12:15:43.408Z,3.30
2019-01-11T12:18:09.567Z,3.26
2019-01-11T12:20:36.060Z,3.20
2019-01-11T12:23:02.123Z,3.11
2019-01-11T12:25:28.219Z,3.01
2019-01-11T12:27:54.248Z,2.97
2019-01-11T12:30:20.224Z,2.96
2019-01-11T12:32:46.188Z,2.96
2019-01-11T12:35:12.574Z,2.92
2019-01-11T12:37:38.837Z,2.89
2019-01-11T12:40:08.012Z,2.97
2019-01-11T12:42:34.132Z,2.98
2019-01-11T12:45:04.224Z,2.92
2019-01-11T12:47:30.179Z,2.87
2019-01-11T12:49:57.000Z,2.82
2019-01-11T12:52:22.961Z,2.79
2019-01-11T12:54:49.885Z,2.79
2019-01-11T12:57:16.412Z,2.74
2019-01-11T12:59:42.669Z,2.75
2019-01-11T13:02:08.853Z,2.78
2019-01-11T13:04:34.875Z,2.82
2019-01-11T13:07:00.986Z,2.82
2019-01-11T13:09:27.003Z,2.80
2019-01-11T13:11:53.526Z,2.78
2019-01-11T13:14:19.690Z,2.76
2019-01-11T13:16:45.849Z,2.74
2019-01-11T13:19:12.144Z,2.77
2019-01-11T13:21:38.101Z,2.75
2019-01-11T13:24:04.451Z,2.70
2019-01-11T13:26:30.571Z,2.84
2019-01-11T13:28:57.450Z,2.89
2019-01-11T13:31:23.732Z,2.81
2019-01-11T13:33:49.762Z,2.77
2019-01-11T13:36:17.615Z,2.76
2019-01-11T13:38:43.575Z,2.72
2019-01-11T13:41:11.996Z,2.67
2019-01-11T13:43:37.949Z,2.65
2019-01-11T13:46:04.095Z,2.63
2019-01-11T13:48:31.232Z,2.57
2019-01-11T13:50:57.263Z,2.55
2019-01-11T13:53:23.217Z,2.51
2019-01-11T13:55:49.344Z,2.49
2019-01-11T13:58:15.495Z,2.51
2019-01-11T14:00:41.470Z,2.52
2019-01-11T14:03:07.550Z,2.51
2019-01-11T14:05:33.587Z,2.53
2019-01-11T14:07:59.833Z,2.63
2019-01-11T14:10:26.027Z,2.65
2019-01-11T14:12:52.014Z,2.64
2019-01-11T14:15:18.091Z,2.62
2019-01-11T14:17:44.111Z,2.61
2019-01-11T14:20:10.870Z,2.58
2019-01-11T14:22:37.244Z,2.60
2019-01-11T14:25:08.387Z,2.64
2019-01-11T14:27:34.328Z,2.63
2019-01-11T14:30:00.281Z,2.64
2019-01-11T14:32:26.265Z,2.64
2019-01-11T14:34:52.241Z,2.65
2019-01-11T14:37:18.207Z,2.62
2019-01-11T14:39:44.219Z,2.62
2019-01-11T14:42:10.372Z,2.65
2019-01-11T14:44:36.331Z,2.67
2019-01-11T14:47:02.441Z,2.71
2019-01-11T14:49:28.390Z,2.73
2019-01-11T14:51:54.357Z,2.74
2019-01-11T14:54:20.343Z,2.81
2019-01-11T14:56:46.371Z,2.94
2019-01-11T14:59:12.310Z,3.01
2019-01-11T15:01:39.684Z,3.01
2019-01-11T15:04:05.700Z,3.04
2019-01-11T15:06:31.651Z,3.02
2019-01-11T15:08:57.656Z,2.99
2019-01-11T15:11:23.618Z,2.95
2019-01-11T15:13:52.387Z,2.96
2019-01-11T15:16:18.479Z,2.98
2019-01-11T15:18:44.507Z,2.98
2019-01-11T15:21:10.484Z,2.97
2019-01-11T15:23:36.523Z,2.98
2019-01-11T15:26:02.876Z,2.97
2019-01-11T15:28:28.842Z,2.96
2019-01-11T15:30:55.443Z,2.95
2019-01-11T15:33:21.415Z,2.94
2019-01-11T15:35:48.531Z,2.94
2019-01-11T15:38:18.161Z,2.93
2019-01-11T15:40:44.150Z,2.94
2019-01-11T15:43:10.300Z,2.98
2019-01-11T15:45:36.436Z,2.99
2019-01-11T15:48:02.704Z,3.00
2019-01-11T15:50:45.118Z,3.01
2019-01-11T15:53:11.094Z,3.00
2019-01-11T15:55:37.104Z,2.99
2019-01-11T15:58:04.107Z,3.00
2019-01-11T16:00:30.360Z,3.04
2019-01-11T16:02:57.232Z,3.08
2019-01-11T16:05:23.258Z,3.09
2019-01-11T16:07:50.761Z,3.16
2019-01-11T16:10:18.891Z,3.18
2019-01-11T16:12:45.881Z,3.20
2019-01-11T16:15:18.506Z,3.23
2019-01-11T16:17:46.873Z,3.27
2019-01-11T16:20:14.981Z,3.27
2019-01-11T16:22:41.344Z,3.28
2019-01-11T16:25:09.212Z,3.33
2019-01-11T16:27:39.488Z,3.33
2019-01-11T16:30:13.824Z,3.34
2019-01-11T16:32:39.994Z,3.35
2019-01-11T16:35:06.454Z,3.33
2019-01-11T16:37:32.551Z,3.34
2019-01-11T16:39:58.811Z,3.46
2019-01-11T16:42:24.774Z,3.53
2019-01-11T16:44:50.754Z,3.54
2019-01-11T16:47:17.795Z,3.54
2019-01-11T16:49:45.917Z,3.54
2019-01-11T16:52:15.285Z,3.55
2019-01-11T16:54:39.752Z,3.55
2019-01-11T16:57:05.728Z,3.61
2019-01-11T16:59:31.893Z,3.69
2019-01-11T17:01:58.009Z,3.74
2019-01-11T17:04:24.014Z,3.76
2019-01-11T17:06:49.972Z,3.81
2019-01-11T17:09:15.996Z,3.83
2019-01-11T17:11:42.000Z,3.82
2019-01-11T17:14:08.012Z,3.85
2019-01-11T17:16:34.005Z,3.85
2019-01-11T17:19:00.271Z,3.84
2019-01-11T17:21:26.236Z,3.84
2019-01-11T17:23:53.496Z,3.77
2019-01-11T17:26:19.719Z,3.78
2019-01-11T17:28:46.044Z,3.78
2019-01-11T17:31:12.087Z,3.78
2019-01-11T17:33:38.243Z,3.80
2019-01-11T17:36:04.879Z,3.81
2019-01-11T17:38:30.895Z,3.83
2019-01-11T17:40:57.077Z,3.86
2019-01-11T17:43:23.044Z,3.86
2019-01-11T17:45:49.466Z,3.87
2019-01-11T17:48:15.436Z,3.95
2019-01-11T17:50:41.396Z,4.09
2019-01-11T17:53:07.432Z,4.08
2019-01-11T17:55:35.572Z,4.06
2019-01-11T17:58:01.748Z,4.02
2019-01-11T18:00:28.736Z,4.02
2019-01-11T18:02:56.067Z,4.05
2019-01-11T18:05:22.035Z,4.07
2019-01-11T18:07:48.147Z,4.08
2019-01-11T18:10:14.314Z,4.09
2019-01-11T18:12:40.570Z,4.12
2019-01-11T18:15:12.475Z,4.12
2019-01-11T18:17:38.432Z,4.15
2019-01-11T18:20:13.084Z,4.21
2019-01-11T18:22:39.194Z,4.35
2019-01-11T18:25:05.833Z,4.37
2019-01-11T18:27:32.039Z,4.36
2019-01-11T18:29:58.030Z,4.35
2019-01-11T18:32:23.999Z,4.34
2019-01-11T18:34:49.960Z,4.33
2019-01-11T18:37:16.063Z,4.33
2019-01-11T18:39:42.443Z,4.34
2019-01-11T18:42:08.421Z,4.36
2019-01-11T18:44:34.790Z,4.37
2019-01-11T18:47:00.792Z,4.38
2019-01-11T18:49:26.748Z,4.39
2019-01-11T18:51:52.814Z,4.39
2019-01-11T18:54:18.809Z,4.41
2019-01-11T18:56:44.786Z,4.42
2019-01-11T18:59:13.675Z,4.41
2019-01-11T19:01:39.714Z,4.41
2019-01-11T19:04:05.678Z,4.40
2019-01-11T19:06:31.686Z,4.39
2019-01-11T19:08:57.688Z,4.41
2019-01-11T19:11:23.827Z,4.38
2019-01-11T19:13:49.816Z,4.38
2019-01-11T19:16:15.955Z,4.35
2019-01-11T19:18:41.931Z,4.28
2019-01-11T19:21:10.217Z,4.17
2019-01-11T19:23:36.355Z,4.07
2019-01-11T19:26:02.947Z,3.98
2019-01-11T19:28:28.946Z,3.93
2019-01-11T19:30:54.953Z,3.84
2019-01-11T19:33:21.035Z,3.75
2019-01-11T19:35:47.044Z,3.66
2019-01-11T19:38:12.994Z,3.58
2019-01-11T19:40:38.952Z,3.52
2019-01-11T19:43:05.036Z,3.49
2019-01-11T19:45:30.994Z,3.48
2019-01-11T19:47:57.506Z,3.53
2019-01-11T19:50:24.083Z,3.54
2019-01-11T19:52:52.417Z,3.56
2019-01-11T19:55:18.911Z,3.54
2019-01-11T19:57:45.062Z,3.48
2019-01-11T20:00:15.060Z,3.42
2019-01-11T20:02:41.292Z,3.35
2019-01-11T20:05:08.764Z,3.29
2019-01-11T20:07:34.939Z,3.26
2019-01-11T20:10:05.963Z,3.25
2019-01-11T20:12:32.042Z,3.24
2019-01-11T20:15:00.215Z,3.23
2019-01-11T20:17:26.288Z,3.19
2019-01-11T20:19:52.245Z,3.15
2019-01-11T20:22:18.225Z,3.12
2019-01-11T20:24:48.355Z,3.07
2019-01-11T20:27:14.721Z,3.00
2019-01-11T20:29:40.907Z,2.96
2019-01-11T20:32:07.027Z,2.91
2019-01-11T20:34:33.492Z,2.86
2019-01-11T20:37:03.279Z,2.83
2019-01-11T20:39:29.392Z,2.78
2019-01-11T20:41:55.492Z,2.75
2019-01-11T20:44:21.458Z,2.71
2019-01-11T20:46:47.596Z,2.66
2019-01-11T20:49:14.405Z,2.63
2019-01-11T20:51:40.377Z,2.60
2019-01-11T20:54:06.584Z,2.59
2019-01-11T20:56:33.160Z,2.56
2019-01-11T20:58:59.135Z,2.53
2019-01-11T21:01:25.230Z,2.50
2019-01-11T21:03:51.785Z,2.48
2019-01-11T21:06:17.965Z,2.45
2019-01-11T21:08:43.998Z,2.41
2019-01-11T21:11:09.967Z,2.39
2019-01-11T21:13:35.940Z,2.37
2019-01-11T21:16:03.374Z,2.34
2019-01-11T21:18:29.643Z,2.33
2019-01-11T21:20:55.617Z,2.31
2019-01-11T21:23:22.320Z,2.30
2019-01-11T21:25:51.072Z,2.29
2019-01-11T21:28:17.056Z,2.28
2019-01-11T21:30:43.397Z,2.25
2019-01-11T21:33:09.404Z,2.25
2019-01-11T21:35:35.396Z,2.24
2019-01-11T21:38:01.417Z,2.24
2019-01-11T21:40:27.597Z,2.22
2019-01-11T21:42:53.876Z,2.21
2019-01-11T21:45:21.092Z,2.19
2019-01-11T21:47:47.362Z,2.20
2019-01-11T21:50:15.966Z,2.40
2019-01-11T21:52:42.112Z,2.48
2019-01-11T21:55:09.086Z,2.38
2019-01-11T21:57:35.048Z,2.30
2019-01-11T22:00:01.467Z,2.22
2019-01-11T22:02:27.418Z,2.16
2019-01-11T22:04:53.810Z,2.11
2019-01-11T22:07:19.916Z,2.05
2019-01-11T22:09:45.899Z,1.99
2019-01-11T22:12:13.043Z,1.95
2019-01-11T22:14:39.072Z,1.91
2019-01-11T22:17:05.285Z,1.88
2019-01-11T22:19:31.248Z,1.86
2019-01-11T22:21:57.443Z,1.84
2019-01-11T22:24:23.398Z,1.81
2019-01-11T22:26:49.504Z,1.79
2019-01-11T22:29:17.481Z,1.76
2019-01-11T22:31:43.480Z,1.75
2019-01-11T22:34:09.593Z,1.76
2019-01-11T22:36:35.615Z,1.77
2019-01-11T22:39:02.592Z,1.77
2019-01-11T22:41:28.969Z,1.75
2019-01-11T22:43:54.955Z,1.74
2019-01-11T22:46:20.919Z,1.70
2019-01-11T22:48:46.877Z,1.65
2019-01-11T22:51:13.695Z,1.60
2019-01-11T22:53:39.658Z,1.55
2019-01-11T22:56:05.609Z,1.49
2019-01-11T22:58:31.644Z,1.45
2019-01-11T23:01:01.399Z,1.41
2019-01-11T23:03:31.155Z,1.41
2019-01-11T23:06:08.896Z,1.57
2019-01-11T23:08:29.836Z,1.55
2019-01-11T23:11:29.702Z,1.51
2019-01-11T23:13:55.656Z,1.46
2019-01-11T23:16:25.409Z,1.42
2019-01-11T23:18:53.921Z,1.38
2019-01-11T23:21:20.385Z,1.36
2019-01-11T23:23:46.360Z,1.32
2019-01-11T23:26:12.368Z,1.30
2019-01-11T23:28:38.918Z,1.26
2019-01-11T23:31:05.679Z,1.21
2019-01-11T23:33:32.105Z,1.18
2019-01-11T23:35:58.393Z,1.15
2019-01-11T23:38:24.662Z,1.10
2019-01-11T23:40:50.834Z,1.08
2019-01-11T23:43:16.799Z,1.06
2019-01-11T23:45:42.883Z,1.05
2019-01-11T23:48:08.868Z,1.04
2019-01-11T23:50:34.827Z,1.05
2019-01-11T23:53:00.873Z,1.05
2019-01-11T23:55:27.181Z,1.05
2019-01-11T23:57:53.127Z,1.05
